Time;durP1;ratioP1;P1;durP2;ratioP2;P2;SDS_P1;SDS_P2;PMS_P1;PMS_P2;Temp;Humidity;BMP_temperature;BMP_pressure;BME280_temperature;BME280_humidity;BME280_pressure;Samples;Min_cycle;Max_cycle;Signal;HPM_P1;HPM_P2
2023/04/06 00:01:32;;;;;;;11.15;5.28;;;;;;;6.63;48.17;98957.25;5107930;28;20120;-51
2023/04/06 00:03:57;;;;;;;12.32;4.53;;;;;;;6.87;48.68;98952.94;5107875;28;20105;-51
2023/04/06 00:06:23;;;;;;;6.88;4.97;;;;;;;7.08;47.62;98954.94;5092225;28;20473;-51
2023/04/06 00:08:49;;;;;;;12.10;5.38;;;;;;;7.27;47.94;98953.72;5107798;28;20460;-51
2023/04/06 00:11:16;;;;;;;11.00;5.95;;;;;;;7.21;46.78;98960.44;5091776;28;20060;-51
2023/04/06 00:13:42;;;;;;;9.93;4.68;;;;;;;7.14;47.34;98959.50;5107771;28;20028;-50
2023/04/06 00:16:07;;;;;;;18.23;5.82;;;;;;;7.10;47.14;98963.44;5092072;28;20034;-51
2023/04/06 00:18:33;;;;;;;15.25;4.93;;;;;;;6.91;47.83;98955.03;5092015;28;20028;-51
2023/04/06 00:20:59;;;;;;;9.50;4.82;;;;;;;6.79;48.03;98953.78;5092003;28;20069;-51
2023/04/06 00:23:25;;;;;;;9.82;5.45;;;;;;;6.67;47.72;98958.56;5090708;28;20145;-51
2023/04/06 00:25:50;;;;;;;6.78;5.05;;;;;;;6.49;48.44;98956.16;5091921;28;20024;-51
2023/04/06 00:28:17;;;;;;;10.43;5.57;;;;;;;6.29;48.71;98954.91;5091826;28;20048;-51
2023/04/06 00:30:42;;;;;;;11.55;5.95;;;;;;;6.38;49.06;98948.72;5092063;28;20043;-51
2023/04/06 00:33:08;;;;;;;7.72;5.60;;;;;;;6.57;48.41;98942.28;5090541;28;20028;-52
2023/04/06 00:35:34;;;;;;;10.35;4.97;;;;;;;6.66;48.61;98941.28;5091885;28;20031;-52
2023/04/06 00:37:59;;;;;;;8.07;5.32;;;;;;;6.64;48.56;98937.22;5090520;28;20521;-51
2023/04/06 00:40:27;;;;;;;7.72;5.28;;;;;;;6.53;48.30;98944.41;5091813;28;20032;-50
2023/04/06 00:42:53;;;;;;;9.57;6.25;;;;;;;6.45;48.21;98947.03;5091747;28;20074;-51
2023/04/06 00:45:19;;;;;;;7.40;5.25;;;;;;;6.38;48.81;98943.50;5091776;28;20025;-51
2023/04/06 00:47:45;;;;;;;11.95;5.45;;;;;;;6.30;49.56;98946.94;5107375;28;20028;-51
2023/04/06 00:50:10;;;;;;;10.68;6.28;;;;;;;6.25;49.31;98951.00;5073479;28;20025;-51
2023/04/06 00:52:36;;;;;;;10.93;5.78;;;;;;;6.12;48.97;98947.13;5107318;28;20039;-51
2023/04/06 00:55:03;;;;;;;12.43;5.32;;;;;;;6.00;49.82;98941.44;5107261;28;20058;-51
2023/04/06 00:57:29;;;;;;;16.85;6.38;;;;;;;6.23;49.74;98934.72;5091711;28;20032;-51
2023/04/06 00:59:55;;;;;;;16.52;6.65;;;;;;;6.32;49.92;98941.56;5091681;28;20025;-52
2023/04/06 01:02:20;;;;;;;14.88;6.75;;;;;;;6.32;49.24;98931.13;5091549;28;20039;-51
2023/04/06 01:04:46;;;;;;;14.63;6.72;;;;;;;6.19;49.61;98940.25;5091579;28;20066;-51
2023/04/06 01:07:12;;;;;;;12.85;6.15;;;;;;;6.10;50.66;98938.66;5107230;28;20482;-51
2023/04/06 01:09:40;;;;;;;12.65;6.55;;;;;;;6.00;49.87;98940.63;5091491;28;20084;-52
2023/04/06 01:12:06;;;;;;;11.00;6.15;;;;;;;5.76;50.89;98931.81;5091440;28;20084;-52
2023/04/06 01:14:32;;;;;;;10.07;6.32;;;;;;;5.70;50.75;98937.66;5091534;28;20040;-51
2023/04/06 01:17:00;;;;;;;12.25;6.43;;;;;;;5.72;50.92;98935.72;5091422;28;20024;-52
2023/04/06 01:19:26;;;;;;;14.40;6.07;;;;;;;5.93;50.22;98937.00;5091400;28;20081;-51
2023/04/06 01:21:53;;;;;;;14.65;7.05;;;;;;;5.82;50.36;98929.53;5107227;28;20114;-51
2023/04/06 01:24:19;;;;;;;14.18;7.13;;;;;;;5.70;51.26;98922.03;5094113;28;20038;-51
2023/04/06 01:26:45;;;;;;;11.25;7.00;;;;;;;5.61;51.40;98930.81;5110592;28;20067;-52
2023/04/06 01:29:11;;;;;;;10.68;6.53;;;;;;;5.50;51.42;98923.34;5110841;28;20024;-51
2023/04/06 01:31:37;;;;;;;12.70;6.97;;;;;;;5.40;51.95;98923.50;5110592;28;20028;-51
2023/04/06 01:34:03;;;;;;;10.20;6.95;;;;;;;5.35;52.68;98923.16;5095011;28;20035;-51
2023/04/06 01:36:29;;;;;;;16.08;6.35;;;;;;;5.36;52.83;98920.41;5094956;28;20036;-51
2023/04/06 01:38:55;;;;;;;16.38;6.38;;;;;;;5.41;52.38;98914.69;5094905;28;20514;-51
2023/04/06 01:41:20;;;;;;;13.93;5.65;;;;;;;5.53;52.17;98923.84;5094799;28;20020;-51
2023/04/06 01:43:48;;;;;;;9.70;6.00;;;;;;;5.75;51.81;98913.75;5110493;28;20058;-52
2023/04/06 01:46:16;;;;;;;15.10;6.70;;;;;;;5.69;50.79;98923.00;5110452;28;20031;-51
2023/04/06 01:48:42;;;;;;;10.68;5.57;;;;;;;5.39;51.38;98922.69;5093411;28;20401;-52
2023/04/06 01:51:08;;;;;;;9.75;5.72;;;;;;;5.11;52.39;98922.16;5110234;28;20038;-51
2023/04/06 01:53:33;;;;;;;13.43;5.95;;;;;;;4.76;53.64;98921.38;5093347;28;20048;-51
2023/04/06 01:55:59;;;;;;;14.25;6.47;;;;;;;4.69;53.86;98925.59;5110276;28;20096;-51
2023/04/06 01:58:25;;;;;;;12.68;7.05;;;;;;;4.64;54.39;98925.22;5110193;28;20046;-51
2023/04/06 02:00:51;;;;;;;12.23;6.43;;;;;;;4.75;54.76;98918.97;5110145;28;20115;-51
2023/04/06 02:03:16;;;;;;;12.48;6.80;;;;;;;4.74;54.03;98925.94;5094422;28;20035;-51
2023/04/06 02:05:42;;;;;;;9.60;6.78;;;;;;;4.68;54.77;98923.94;5094337;28;20035;-51
2023/04/06 02:08:08;;;;;;;16.50;7.60;;;;;;;4.73;54.68;98921.72;5110044;28;20458;-51
2023/04/06 02:10:34;;;;;;;18.77;7.45;;;;;;;4.80;54.46;98920.09;5092957;28;20034;-51
2023/04/06 02:13:00;;;;;;;15.60;7.47;;;;;;;4.70;54.32;98924.59;5094278;28;20027;-51
2023/04/06 02:15:26;;;;;;;9.77;7.30;;;;;;;4.63;54.24;98928.81;5092958;28;20511;-51
2023/04/06 02:17:52;;;;;;;10.95;5.43;;;;;;;4.53;55.26;98930.72;5094192;28;20032;-51
2023/04/06 02:20:18;;;;;;;12.00;6.50;;;;;;;4.68;54.88;98923.16;5094090;28;20019;-51
2023/04/06 02:22:43;;;;;;;14.55;7.85;;;;;;;4.83;54.59;98926.78;5094080;28;20032;-51
2023/04/06 02:25:09;;;;;;;12.93;7.97;;;;;;;4.80;54.35;98929.69;5109625;28;20508;-51
2023/04/06 02:27:36;;;;;;;17.42;8.48;;;;;;;4.78;54.04;98923.84;5093733;28;20039;-51
2023/04/06 02:30:05;;;;;;;14.63;7.28;;;;;;;4.72;54.35;98922.66;5109512;28;20024;-51
2023/04/06 02:32:31;;;;;;;11.93;6.18;;;;;;;4.67;55.88;98924.09;5093037;28;20086;-51
2023/04/06 02:34:57;;;;;;;14.40;6.90;;;;;;;4.53;57.07;98928.13;5109452;28;20019;-51
2023/04/06 02:37:23;;;;;;;17.75;8.30;;;;;;;4.44;57.17;98932.44;5093756;28;20030;-51
2023/04/06 02:39:49;;;;;;;12.80;7.63;;;;;;;4.33;56.27;98927.53;5093656;28;20405;-51
2023/04/06 02:42:15;;;;;;;13.05;7.03;;;;;;;4.14;56.79;98923.34;5093667;28;20032;-51
2023/04/06 02:44:42;;;;;;;14.55;7.28;;;;;;;4.12;57.06;98925.28;5109329;28;20064;-51
2023/04/06 02:47:08;;;;;;;25.58;9.25;;;;;;;4.24;56.72;98925.84;5092529;28;20035;-51
2023/04/06 02:49:34;;;;;;;26.35;17.55;;;;;;;4.19;56.71;98911.53;5093443;28;20078;-51
2023/04/06 02:52:00;;;;;;;24.20;10.52;;;;;;;4.11;56.66;98910.69;5092094;28;20032;-51
2023/04/06 02:54:25;;;;;;;12.40;7.07;;;;;;;3.99;57.50;98912.72;5092142;28;20023;-51
2023/04/06 02:56:51;;;;;;;13.48;7.00;;;;;;;4.31;57.85;98906.09;5093409;28;20107;-51
2023/04/06 02:59:17;;;;;;;12.77;6.28;;;;;;;4.74;56.53;98909.53;5109051;28;20035;-51
2023/04/06 03:01:42;;;;;;;15.13;6.40;;;;;;;4.95;55.44;98909.09;5108952;28;20024;-51
2023/04/06 03:04:08;;;;;;;11.63;6.45;;;;;;;4.94;53.92;98918.69;5093269;28;20059;-51
2023/04/06 03:06:34;;;;;;;13.60;6.60;;;;;;;4.66;54.66;98910.28;5108861;28;20051;-51
2023/04/06 03:08:59;;;;;;;13.85;6.88;;;;;;;4.50;55.08;98913.63;5108798;28;20429;-51
2023/04/06 03:11:26;;;;;;;15.48;6.93;;;;;;;4.50;55.15;98920.63;5093039;28;20039;-51
2023/04/06 03:13:52;;;;;;;10.93;6.32;;;;;;;4.27;54.86;98922.97;5092974;28;20024;-51
2023/04/06 03:16:17;;;;;;;14.55;6.75;;;;;;;4.12;55.74;98928.69;5108700;28;20081;-51
2023/04/06 03:18:44;;;;;;;15.05;6.35;;;;;;;4.05;55.58;98932.88;5092948;28;20047;-51
2023/04/06 03:21:10;;;;;;;10.00;6.65;;;;;;;4.05;56.44;98926.88;5092894;28;20028;-51
2023/04/06 03:23:36;;;;;;;11.32;6.13;;;;;;;4.12;56.30;98928.69;5092804;28;20024;-52
2023/04/06 03:26:03;;;;;;;13.57;5.70;;;;;;;4.14;55.92;98926.75;5108464;28;20428;-48
2023/04/06 03:28:29;;;;;;;14.88;6.10;;;;;;;4.22;56.08;98932.97;5108409;28;20125;-49
2023/04/06 03:30:55;;;;;;;10.10;6.25;;;;;;;4.24;56.25;98931.84;5092928;28;20023;-49
2023/04/06 03:33:20;;;;;;;18.65;6.35;;;;;;;4.11;55.91;98926.28;5092976;28;20028;-49
2023/04/06 03:35:47;;;;;;;15.13;6.80;;;;;;;4.11;56.38;98934.88;5092500;28;20051;-48
2023/04/06 03:38:13;;;;;;;12.90;6.57;;;;;;;4.08;56.08;98934.34;5108435;28;20412;-48
2023/04/06 03:40:39;;;;;;;13.13;7.32;;;;;;;4.00;56.98;98928.16;5092611;28;20043;-49
2023/04/06 03:43:05;;;;;;;11.20;5.93;;;;;;;3.94;56.92;98931.38;5108272;28;20027;-49
2023/04/06 03:45:30;;;;;;;11.95;7.43;;;;;;;4.02;57.46;98922.78;5092168;28;20051;-49
2023/04/06 03:47:56;;;;;;;19.08;7.30;;;;;;;4.28;57.39;98932.38;5092397;28;20042;-49
2023/04/06 03:50:22;;;;;;;9.65;6.53;;;;;;;4.53;56.46;98928.13;5108093;28;20501;-48
2023/04/06 03:52:47;;;;;;;13.23;7.45;;;;;;;4.64;56.16;98929.63;5092477;28;20438;-49
2023/04/06 03:55:13;;;;;;;14.68;7.18;;;;;;;4.78;54.95;98924.63;5092464;28;20442;-49
2023/04/06 03:57:39;;;;;;;12.20;7.45;;;;;;;4.65;55.19;98926.03;5092325;28;20465;-49
2023/04/06 04:00:05;;;;;;;14.75;6.10;;;;;;;4.49;55.84;98926.81;5108071;28;20024;-49
2023/04/06 04:02:31;;;;;;;12.15;7.40;;;;;;;4.42;55.49;98923.19;5092356;28;20544;-49
2023/04/06 04:04:56;;;;;;;10.52;6.18;;;;;;;4.30;55.41;98914.84;5090914;28;20036;-48
2023/04/06 04:07:22;;;;;;;15.52;7.35;;;;;;;4.25;56.16;98922.31;5107885;28;20024;-48
2023/04/06 04:09:48;;;;;;;23.05;6.88;;;;;;;4.19;56.19;98931.50;5092076;28;20504;-49
2023/04/06 04:12:15;;;;;;;15.68;7.55;;;;;;;4.13;56.27;98930.34;5092086;28;20024;-48
2023/04/06 04:14:40;;;;;;;16.20;6.53;;;;;;;4.09;56.85;98928.22;5092311;28;20028;-49
2023/04/06 04:17:06;;;;;;;14.88;7.10;;;;;;;4.09;56.56;98925.59;5092114;28;20545;-48
2023/04/06 04:19:32;;;;;;;15.57;6.68;;;;;;;3.98;56.53;98929.25;5092110;28;20054;-48
2023/04/06 04:21:57;;;;;;;10.00;6.78;;;;;;;3.85;56.93;98927.06;5107885;28;20040;-48
2023/04/06 04:24:23;;;;;;;17.80;7.60;;;;;;;3.66;57.56;98930.63;5092047;28;20397;-49
2023/04/06 04:26:49;;;;;;;15.05;7.55;;;;;;;3.60;57.96;98929.47;5091801;28;20083;-49
2023/04/06 04:29:15;;;;;;;13.68;7.57;;;;;;;3.63;57.97;98925.75;5107736;28;20035;-48
2023/04/06 04:31:41;;;;;;;14.48;6.82;;;;;;;3.65;58.09;98934.22;5091703;28;20040;-48
2023/04/06 04:34:06;;;;;;;11.52;7.25;;;;;;;3.67;58.85;98934.88;5091881;28;20111;-48
2023/04/06 04:36:32;;;;;;;12.02;7.40;;;;;;;3.81;58.77;98938.72;5091823;28;20032;-48
2023/04/06 04:38:58;;;;;;;11.55;6.53;;;;;;;3.85;59.25;98942.63;5091800;28;20570;-48
2023/04/06 04:41:24;;;;;;;11.85;7.35;;;;;;;3.97;58.38;98945.81;5091869;28;20031;-48
2023/04/06 04:43:49;;;;;;;11.90;7.22;;;;;;;3.93;57.79;98947.91;5107434;28;20401;-48
2023/04/06 04:46:15;;;;;;;17.58;7.28;;;;;;;3.87;57.50;98955.47;5107446;28;20413;-49
2023/04/06 04:48:41;;;;;;;14.32;6.95;;;;;;;3.89;57.50;98953.53;5107451;28;20054;-48
2023/04/06 04:51:06;;;;;;;26.38;7.88;;;;;;;3.93;57.52;98954.88;5107349;28;20467;-48
2023/04/06 04:53:32;;;;;;;12.13;6.95;;;;;;;4.02;57.39;98956.53;5091772;28;20028;-48
2023/04/06 04:55:58;;;;;;;19.60;7.47;;;;;;;4.05;57.47;98964.03;5091573;28;20020;-48
2023/04/06 04:58:24;;;;;;;15.18;7.07;;;;;;;4.03;56.52;98952.19;5093008;28;20032;-48
2023/04/06 05:00:49;;;;;;;14.00;7.10;;;;;;;3.93;57.10;98960.88;5095619;28;20028;-48
2023/04/06 05:03:22;;;;;;;18.20;7.30;;;;;;;3.96;57.18;98959.75;5111295;28;20035;-48
2023/04/06 05:05:48;;;;;;;20.77;7.30;;;;;;;4.14;57.32;98952.72;5094237;28;20440;-48
2023/04/06 05:08:14;;;;;;;17.23;7.70;;;;;;;4.33;57.37;98949.13;5111186;28;20034;-48
2023/04/06 05:10:40;;;;;;;18.25;8.35;;;;;;;4.30;56.70;98951.22;5095263;28;20038;-49
2023/04/06 05:13:05;;;;;;;16.15;7.40;;;;;;;4.24;56.59;98954.44;5111118;28;20084;-48
2023/04/06 05:15:34;;;;;;;15.50;7.32;;;;;;;4.15;56.61;98954.38;5111101;28;20039;-49
2023/04/06 05:18:00;;;;;;;18.58;8.70;;;;;;;4.25;56.63;98962.06;5095294;28;20035;-49
2023/04/06 05:20:26;;;;;;;14.20;7.35;;;;;;;4.44;56.72;98961.03;5110963;28;20598;-49
2023/04/06 05:22:52;;;;;;;9.13;6.00;;;;;;;4.60;56.27;98962.91;5095281;28;20031;-49
2023/04/06 05:25:18;;;;;;;18.30;7.00;;;;;;;4.67;56.47;98968.28;5110873;28;20405;-49
2023/04/06 05:27:44;;;;;;;20.02;8.05;;;;;;;4.93;55.71;98968.25;5110717;28;20052;-49
2023/04/06 05:30:10;;;;;;;18.45;8.15;;;;;;;5.25;54.12;98977.13;5094996;28;20039;-48
2023/04/06 05:32:36;;;;;;;20.90;8.32;;;;;;;5.74;53.62;98974.63;5094974;28;20028;-49
2023/04/06 05:35:02;;;;;;;14.35;8.15;;;;;;;6.63;51.27;98966.88;5095021;28;20027;-49
2023/04/06 05:37:27;;;;;;;27.83;10.38;;;;;;;7.28;49.58;98965.78;5095077;28;20053;-49
2023/04/06 05:39:53;;;;;;;23.38;9.93;;;;;;;7.51;47.57;98965.81;5094980;28;20385;-49
2023/04/06 05:42:19;;;;;;;15.43;9.73;;;;;;;7.66;46.65;98964.06;5094907;28;20051;-49
2023/04/06 05:44:45;;;;;;;17.70;9.57;;;;;;;7.73;46.81;98969.41;5094840;28;20536;-49
2023/04/06 05:47:11;;;;;;;17.08;8.60;;;;;;;7.71;46.46;98972.19;5110549;28;20174;-48
2023/04/06 05:49:37;;;;;;;19.50;8.05;;;;;;;7.18;47.05;98973.81;5110459;28;20055;-49
2023/04/06 05:52:03;;;;;;;16.02;8.55;;;;;;;7.07;48.26;98975.03;5094763;28;20024;-48
2023/04/06 05:54:29;;;;;;;13.52;6.78;;;;;;;7.52;47.99;98972.66;5094753;28;20493;-49
2023/04/06 05:56:55;;;;;;;19.23;8.23;;;;;;;8.50;47.80;98971.03;5093414;28;20055;-49
2023/04/06 05:59:21;;;;;;;18.25;8.30;;;;;;;9.29;44.60;98976.47;5093354;28;20028;-51
2023/04/06 06:01:47;;;;;;;13.75;7.72;;;;;;;8.99;43.87;98973.91;5094444;28;20068;-52
2023/04/06 06:04:12;;;;;;;13.07;7.40;;;;;;;9.17;44.41;98978.72;5094477;28;20508;-52
2023/04/06 06:06:38;;;;;;;21.35;8.43;;;;;;;9.49;43.11;98978.50;5110105;28;20448;-52
2023/04/06 06:09:04;;;;;;;20.77;8.48;;;;;;;9.72;43.19;98971.28;5093919;28;20032;-52
2023/04/06 06:11:30;;;;;;;11.52;7.05;;;;;;;9.39;42.96;98970.94;5110216;28;20477;-52
2023/04/06 06:13:56;;;;;;;14.73;8.90;;;;;;;8.89;43.29;98970.75;5109900;28;20508;-51
2023/04/06 06:16:22;;;;;;;23.80;8.57;;;;;;;8.25;44.42;98965.19;5094188;28;20024;-52
2023/04/06 06:18:48;;;;;;;15.30;7.57;;;;;;;8.02;45.06;98970.50;5109791;28;20032;-52
2023/04/06 06:21:14;;;;;;;18.52;8.02;;;;;;;8.12;46.10;98973.66;5094077;28;20023;-51
2023/04/06 06:23:43;;;;;;;18.77;7.65;;;;;;;8.45;45.83;98978.59;5094258;28;20374;-51
2023/04/06 06:26:08;;;;;;;18.75;8.88;;;;;;;9.14;44.88;98976.50;5109641;28;20034;-51
2023/04/06 06:28:34;;;;;;;15.40;7.32;;;;;;;9.79;43.62;98979.19;5093754;28;20513;-51
2023/04/06 06:31:00;;;;;;;16.45;7.45;;;;;;;10.59;42.83;98983.25;5093828;28;20059;-52
2023/04/06 06:33:26;;;;;;;15.85;7.88;;;;;;;10.98;41.84;98981.00;5109490;28;20126;-52
2023/04/06 06:35:52;;;;;;;126.55;115.07;;;;;;;10.59;40.41;98977.19;5109428;28;20115;-51
2023/04/06 06:38:18;;;;;;;47.70;29.67;;;;;;;9.97;41.69;98991.84;5093784;28;20031;-52
2023/04/06 06:40:45;;;;;;;14.75;9.27;;;;;;;9.61;42.83;98990.09;5093683;28;20020;-52
2023/04/06 06:43:11;;;;;;;11.80;8.43;;;;;;;9.64;42.12;98987.13;5093705;28;20032;-51
2023/04/06 06:45:37;;;;;;;17.40;8.52;;;;;;;9.41;42.28;98987.25;5093607;28;20020;-52
2023/04/06 06:48:03;;;;;;;25.50;8.70;;;;;;;9.38;43.48;98987.66;5093626;28;20051;-51
2023/04/06 06:50:29;;;;;;;20.48;8.32;;;;;;;9.68;42.85;98988.38;5109128;28;20028;-52
2023/04/06 06:52:55;;;;;;;11.90;7.57;;;;;;;10.09;42.11;98987.72;5093498;28;20482;-52
2023/04/06 06:55:20;;;;;;;22.85;7.25;;;;;;;10.73;41.09;98978.09;5093425;28;20478;-52
2023/04/06 06:57:46;;;;;;;18.95;7.70;;;;;;;11.43;40.40;98975.31;5109050;28;20097;-52
2023/04/06 07:00:14;;;;;;;14.05;7.28;;;;;;;11.84;39.75;98971.75;5093356;28;20016;-52
2023/04/06 07:02:39;;;;;;;12.98;6.78;;;;;;;12.10;39.61;98973.59;5093555;28;20478;-52
2023/04/06 07:05:06;;;;;;;23.70;7.70;;;;;;;12.42;39.47;98965.91;5093300;28;20024;-52
2023/04/06 07:07:33;;;;;;;20.17;8.68;;;;;;;12.76;38.91;98968.22;5093212;28;20024;-52
2023/04/06 07:09:59;;;;;;;24.73;8.02;;;;;;;13.09;37.98;98972.56;5093067;28;20452;-52
2023/04/06 07:12:25;;;;;;;18.88;9.00;;;;;;;13.42;37.28;98976.09;5091748;28;20028;-49
2023/04/06 07:14:51;;;;;;;18.67;9.80;;;;;;;13.82;37.21;98976.63;5108824;28;20599;-49
2023/04/06 07:17:16;;;;;;;27.58;11.85;;;;;;;14.21;36.45;98966.81;5093032;28;20043;-49
2023/04/06 07:19:42;;;;;;;20.67;10.88;;;;;;;14.61;36.08;98968.25;5092957;28;20117;-49
2023/04/06 07:22:08;;;;;;;20.60;10.63;;;;;;;15.33;34.93;98965.78;5090842;28;20096;-49
2023/04/06 07:24:34;;;;;;;18.05;10.00;;;;;;;15.93;33.75;98970.22;5092874;28;20035;-49
2023/04/06 07:27:03;;;;;;;18.00;10.07;;;;;;;16.34;33.16;98963.25;5091325;28;20075;-50
2023/04/06 07:29:29;;;;;;;21.17;10.82;;;;;;;16.84;32.59;98962.75;5093063;28;20050;-49
2023/04/06 07:31:55;;;;;;;20.80;9.88;;;;;;;17.44;31.70;98966.00;5092680;28;20028;-49
2023/04/06 07:34:21;;;;;;;16.95;9.18;;;;;;;18.02;30.63;98975.50;5092735;28;20047;-49
2023/04/06 07:36:47;;;;;;;15.35;8.43;;;;;;;18.71;30.05;98977.81;5092623;28;20043;-47
2023/04/06 07:39:12;;;;;;;16.73;7.65;;;;;;;19.26;29.00;98978.75;5092661;28;20099;-47
2023/04/06 07:41:38;;;;;;;15.10;8.30;;;;;;;19.77;28.59;98973.16;5092524;28;20020;-47
2023/04/06 07:44:04;;;;;;;17.88;9.15;;;;;;;20.68;27.88;98980.19;5108241;28;20070;-47
2023/04/06 07:46:30;;;;;;;22.33;7.35;;;;;;;22.01;26.38;98982.38;5108049;28;20028;-47
2023/04/06 07:49:01;;;;;;;17.17;8.45;;;;;;;22.89;25.16;98980.34;5092440;28;20036;-48
2023/04/06 07:51:26;;;;;;;15.40;7.72;;;;;;;23.12;23.67;98973.59;5092224;28;20040;-47
2023/04/06 07:53:52;;;;;;;11.55;7.95;;;;;;;23.16;23.44;98974.66;5107927;28;20401;-47
2023/04/06 07:56:18;;;;;;;19.60;7.72;;;;;;;22.94;23.38;98980.34;5107995;28;20046;-47
2023/04/06 07:58:44;;;;;;;22.77;8.48;;;;;;;22.83;23.53;98982.25;5092143;28;20024;-47
2023/04/06 08:01:10;;;;;;;19.52;7.80;;;;;;;22.96;23.31;98985.41;5092171;28;20032;-47
2023/04/06 08:03:36;;;;;;;15.27;7.60;;;;;;;22.89;23.54;98989.19;5107966;28;20525;-48
2023/04/06 08:06:02;;;;;;;17.10;7.45;;;;;;;21.40;24.71;98993.00;5092103;28;20031;-47
2023/04/06 08:08:28;;;;;;;13.85;7.82;;;;;;;20.17;25.83;99003.03;5107783;28;20058;-47
2023/04/06 08:10:54;;;;;;;21.58;8.70;;;;;;;19.71;26.76;99001.59;5092043;28;20028;-47
2023/04/06 08:13:20;;;;;;;12.77;7.78;;;;;;;20.08;26.00;98998.19;5108042;28;20054;-47
2023/04/06 08:15:46;;;;;;;16.83;7.18;;;;;;;20.83;25.71;98997.34;5107663;28;20028;-47
2023/04/06 08:18:12;;;;;;;14.05;8.20;;;;;;;21.99;24.52;99000.56;5092308;28;20081;-47
2023/04/06 08:20:37;;;;;;;20.70;8.18;;;;;;;22.33;23.91;99000.84;5091843;28;20020;-48
2023/04/06 08:23:03;;;;;;;22.05;8.02;;;;;;;22.60;23.86;98999.72;5092084;28;20512;-47
2023/04/06 08:25:29;;;;;;;12.13;7.78;;;;;;;23.24;23.09;98992.00;5107817;28;20423;-48
2023/04/06 08:27:55;;;;;;;10.68;6.93;;;;;;;23.68;22.09;98994.69;5107273;28;20180;-47
2023/04/06 08:30:21;;;;;;;16.73;7.45;;;;;;;23.75;21.57;98980.97;5091646;28;20115;-48
2023/04/06 08:32:47;;;;;;;10.50;7.18;;;;;;;23.71;22.10;98991.44;5095303;28;20115;-47
2023/04/06 08:35:13;;;;;;;13.23;7.70;;;;;;;24.54;21.30;98986.19;5098862;28;20076;-48
2023/04/06 08:37:39;;;;;;;15.43;7.93;;;;;;;25.27;20.39;98986.94;5080376;28;20448;-48
2023/04/06 08:40:05;;;;;;;13.43;7.45;;;;;;;26.42;19.64;98991.88;5098508;28;20414;-48
2023/04/06 08:42:33;;;;;;;13.35;6.93;;;;;;;27.12;18.62;98984.56;5098391;28;20485;-48
2023/04/06 08:44:59;;;;;;;13.25;6.30;;;;;;;27.27;17.98;98981.56;5114509;28;20027;-48
2023/04/06 08:47:26;;;;;;;11.07;7.15;;;;;;;27.39;17.69;98991.81;5098525;28;20068;-48
2023/04/06 08:49:53;;;;;;;14.82;6.40;;;;;;;27.16;17.22;98993.63;5114115;28;20028;-48
2023/04/06 08:52:20;;;;;;;11.80;6.57;;;;;;;26.48;17.63;98995.22;5098448;28;20027;-48
2023/04/06 08:54:46;;;;;;;11.80;5.60;;;;;;;25.22;18.36;98995.09;5098470;28;20035;-48
2023/04/06 08:57:12;;;;;;;8.50;5.38;;;;;;;25.04;18.23;98993.94;5114105;28;20031;-48
2023/04/06 08:59:39;;;;;;;10.35;4.80;;;;;;;25.40;17.60;98991.59;5114032;28;20112;-48
2023/04/06 09:02:06;;;;;;;17.33;5.15;;;;;;;25.79;17.03;98992.38;5098371;28;20508;-48
2023/04/06 09:04:36;;;;;;;10.88;4.93;;;;;;;26.10;17.08;98993.50;5114062;28;20669;-47
2023/04/06 09:07:02;;;;;;;8.60;4.50;;;;;;;26.40;16.05;98996.75;5098644;28;20392;-48
2023/04/06 09:09:27;;;;;;;16.80;5.90;;;;;;;26.96;16.34;98992.16;5098454;28;20020;-48
2023/04/06 09:11:53;;;;;;;9.35;5.50;;;;;;;27.50;16.33;98990.47;5098208;28;20111;-48
2023/04/06 09:14:38;;;;;;;17.70;7.75;;;;;;;27.56;16.03;98983.06;5098192;28;20028;-48
2023/04/06 09:17:04;;;;;;;;;;;;;;;27.30;16.98;98988.25;5098630;28;20028;-48
2023/04/06 09:19:30;;;;;;;11.32;4.50;;;;;;;27.47;15.01;98985.72;5097169;28;19908;-47
2023/04/06 09:22:04;;;;;;;6.97;3.95;;;;;;;27.64;14.93;98986.94;5113919;28;20024;-47
2023/04/06 09:24:46;;;;;;;16.30;6.50;;;;;;;27.08;15.58;98988.97;5098190;28;20050;-47
2023/04/06 09:27:13;;;;;;;14.10;4.95;;;;;;;26.86;15.35;98993.19;5098225;28;20455;-48
2023/04/06 09:29:43;;;;;;;15.05;5.82;;;;;;;27.32;15.50;98983.34;5098006;28;20105;-48
2023/04/06 09:32:10;;;;;;;10.77;4.82;;;;;;;28.07;15.55;98981.88;5097033;28;20035;-48
2023/04/06 09:34:39;;;;;;;18.45;4.68;;;;;;;29.19;14.62;98977.19;5098052;28;20028;-48
2023/04/06 09:37:18;;;;;;;7.53;4.25;;;;;;;30.26;14.01;98974.84;5098077;28;20121;-48
2023/04/06 09:39:45;;;;;;;18.25;5.18;;;;;;;30.82;13.16;98978.28;5113673;28;20024;-48
2023/04/06 09:42:27;;;;;;;34.17;5.95;;;;;;;30.57;13.17;98979.25;5113651;28;20062;-48
2023/04/06 09:44:54;;;;;;;12.80;4.82;;;;;;;30.80;13.28;98974.31;5110438;28;20028;-48
2023/04/06 09:47:22;;;;;;;9.18;4.22;;;;;;;31.47;12.33;98969.91;5110405;28;20032;-48
2023/04/06 09:49:50;;;;;;;18.35;6.07;;;;;;;31.60;12.36;98971.56;5110367;28;20046;-48
2023/04/06 09:52:18;;;;;;;9.75;4.40;;;;;;;30.91;12.50;98972.03;5093333;28;20031;-48
2023/04/06 09:54:50;;;;;;;12.18;4.97;;;;;;;30.51;12.41;98978.63;5094570;28;20016;-48
2023/04/06 09:57:23;;;;;;;6.60;3.97;;;;;;;30.98;12.03;98964.19;5094821;28;20015;-48
2023/04/06 10:00:14;;;;;;;11.20;4.75;;;;;;;30.53;12.12;98970.19;5110216;28;20541;-48
2023/04/06 10:02:59;;;;;;;13.23;4.78;;;;;;;30.31;12.59;98968.53;5110049;28;20043;-49
2023/04/06 10:05:43;;;;;;;7.63;3.92;;;;;;;30.74;12.02;98965.59;5094387;28;20051;-48
2023/04/06 10:08:13;;;;;;;8.77;4.90;;;;;;;30.89;12.40;98955.31;5110087;28;20039;-48
2023/04/06 10:10:39;;;;;;;14.70;4.70;;;;;;;30.83;12.76;98955.50;5094262;28;20154;-48
2023/04/06 10:13:05;;;;;;;7.80;4.63;;;;;;;31.62;11.85;98954.94;5109951;28;20024;-48
2023/04/06 10:15:31;;;;;;;6.65;3.97;;;;;;;30.91;11.80;98961.22;5093110;28;20047;-48
2023/04/06 10:18:02;;;;;;;14.60;5.93;;;;;;;30.45;12.53;98960.97;5094184;28;20034;-48
2023/04/06 10:20:57;;;;;;;8.00;4.43;;;;;;;30.97;12.36;98966.13;5094066;28;20028;-48
2023/04/06 10:23:29;;;;;;;8.52;4.15;;;;;;;31.83;11.71;98955.69;5094015;28;20035;-48
2023/04/06 10:25:57;;;;;;;6.97;4.30;;;;;;;32.32;11.04;98949.56;5094109;28;20113;-46
2023/04/06 10:28:25;;;;;;;11.70;4.80;;;;;;;32.00;10.89;98946.59;5093812;28;20129;-46
2023/04/06 10:30:58;;;;;;;6.38;4.20;;;;;;;31.82;11.47;98951.38;5093806;28;20039;-45
2023/04/06 10:33:25;;;;;;;11.13;4.75;;;;;;;31.32;11.59;98959.66;5093903;28;20024;-48
2023/04/06 10:35:50;;;;;;;4.72;3.67;;;;;;;30.98;11.60;98958.78;5109493;28;20114;-48
2023/04/06 10:38:20;;;;;;;7.85;4.40;;;;;;;30.68;11.66;98956.06;5109719;28;20030;-48
2023/04/06 10:40:47;;;;;;;6.63;4.53;;;;;;;29.63;11.87;98963.69;5093704;28;20093;-48
2023/04/06 10:43:22;;;;;;;7.75;4.30;;;;;;;28.71;12.50;98964.53;5093661;28;20073;-48
2023/04/06 10:46:00;;;;;;;10.27;7.72;;;;;;;28.29;12.96;98967.53;5093636;28;20064;-47
2023/04/06 10:48:40;;;;;;;6.75;4.82;;;;;;;28.02;13.13;98965.00;5109253;28;20397;-48
2023/04/06 10:51:17;;;;;;;10.57;5.10;;;;;;;28.21;13.70;98964.78;5093505;28;20030;-48
2023/04/06 10:53:45;;;;;;;7.00;5.68;;;;;;;28.34;13.48;98968.50;5093494;28;20442;-48
2023/04/06 10:56:12;;;;;;;14.10;7.22;;;;;;;27.97;13.75;98968.66;5092138;28;20024;-48
2023/04/06 10:58:38;;;;;;;7.78;4.20;;;;;;;26.85;13.67;98972.75;5109339;28;20032;-48
2023/04/06 11:01:04;;;;;;;7.53;3.95;;;;;;;26.38;13.97;98969.34;5093257;28;20069;-48
2023/04/06 11:03:32;;;;;;;9.85;4.72;;;;;;;26.49;14.65;98973.41;5093306;28;20062;-48
2023/04/06 11:05:57;;;;;;;8.85;6.00;;;;;;;26.82;14.46;98975.22;5108950;28;20097;-47
2023/04/06 11:08:25;;;;;;;11.48;4.95;;;;;;;27.23;13.90;98977.06;5093281;28;20024;-47
2023/04/06 11:10:51;;;;;;;8.98;4.43;;;;;;;27.94;13.38;98968.47;5108800;28;20539;-48
2023/04/06 11:13:17;;;;;;;7.45;3.97;;;;;;;28.40;13.57;98978.06;5093105;28;20028;-48
2023/04/06 11:15:43;;;;;;;7.28;4.22;;;;;;;28.00;13.29;98967.22;5108715;28;20028;-48
2023/04/06 11:18:08;;;;;;;6.70;3.78;;;;;;;26.86;13.88;98968.97;5093033;28;20039;-48
2023/04/06 11:20:34;;;;;;;30.85;5.55;;;;;;;25.70;14.56;98966.16;5092955;28;20016;-48
2023/04/06 11:23:01;;;;;;;5.07;3.97;;;;;;;24.74;15.37;98963.69;5092939;28;20190;-48
2023/04/06 11:25:27;;;;;;;9.55;4.45;;;;;;;24.19;16.09;98963.19;5092810;28;20081;-47
2023/04/06 11:27:53;;;;;;;6.43;4.32;;;;;;;24.10;16.30;98963.78;5091409;28;20097;-48
2023/04/06 11:30:19;;;;;;;10.77;4.50;;;;;;;23.85;16.44;98964.03;5092701;28;20032;-48